• Join FlightAware (Why Join?)
  • Login
  • US Flag 
12:28PM EST


 

Airport Tracker/Info


-or-


 

Live Flight TrackerFlight Track Log ✈ XOJ550 ✈ 12-Jul-2013 ✈ KBTV - KCMH

Flight Track Log - Related Links

Times and Time Zones

All times are in EDT time to prevent confusion due to time zone crossing. See the XOJ550 flight status page for this flight to view local times or setup timezone preferences in your user account.

Time Position Orientation Groundspeed Altitude Reporting Facility
EDT Latitude Longitude Course Direction KTS MPH feet Rate Location/Type
10:50AM 44.4264 -73.3558 238° Southwest 291 335 9,900  Level Boston Center
10:51AM 44.3756 -73.4742 239° Southwest 331 381 10,000 60 Climbing Boston Center
10:52AM 44.3222 -73.5978 239° Southwest 368 423 10,100 1,980 Climbing Boston Center
10:53AM 44.2708 -73.7186 239° Southwest 368 423 14,000 3,900 Climbing Boston Center
10:54AM 44.2172 -73.8419 239° Southwest 373 429 18,000 3,840 Climbing Boston Center
10:55AM 44.1481 -73.9199 240° Southwest  Level FlightAware Approximate
10:55AM 44.1678 -73.9625 240° Southwest 368 423 21,700  Level Boston Center
10:56AM 44.1186 -74.0711 238° Southwest 368 423 24,900 3,000 Climbing Boston Center
10:57AM 44.0667 -74.1939 240° Southwest 368 423 27,700 2,760 Climbing Boston Center
10:58AM 44.0128 -74.3136 238° Southwest 373 429 30,500 2,460 Climbing Boston Center
10:59AM 43.9583 -74.4417 239° Southwest 373 429 32,700 2,220 Climbing Boston Center
11:00AM 43.9042 -74.5667 239° Southwest 378 435 35,000 2,100 Climbing Boston Center
11:01AM 43.8475 -74.6914 238° Southwest 378 435 36,900 1,800 Climbing Boston Center
11:02AM 43.7928 -74.8158 239° Southwest 384 442 38,700 1,200 Climbing Boston Center
11:03AM 43.7381 -74.9403 239° Southwest 384 442 39,400 840 Climbing Boston Center
11:04AM 43.6789 -75.0697 238° Southwest 384 442 40,400 960 Climbing Boston Center
11:05AM 43.6239 -75.1964 239° Southwest 384 442 41,400 900 Climbing Boston Center
11:06AM 43.5642 -75.3342 239° Southwest 403 464 42,200 780 Climbing Boston Center
11:07AM 43.5042 -75.4744 240° Southwest 415 478 43,000 360 Climbing Boston Center
11:08AM 43.4381 -75.6114 236° Southwest 425 489 43,000  Level Boston Center
11:09AM 43.3647 -75.7675 237° Southwest 433 498 43,000  Level Boston Center
11:10AM 43.3000 -75.9125 239° Southwest 438 504 43,000  Level Boston Center
11:11AM 43.2353 -76.0514 237° Southwest 443 510 43,000  Level Boston Center
11:12AM 43.1642 -76.1867 234° Southwest 443 510 43,000  Level Boston Center
11:14AM 43.0033 -76.3356 214° Southwest 434 499 43,000  Level Cleveland Center
11:15AM 42.9003 -76.4250 212° Southwest 439 505 43,000  Level Cleveland Center
11:16AM 42.8081 -76.5272 219° Southwest 439 505 43,000  Level Cleveland Center
11:17AM 42.7442 -76.6700 239° Southwest 430 495 43,000  Level Cleveland Center
11:18AM 42.6861 -76.8092 240° Southwest 439 505 43,000  Level Cleveland Center
11:19AM 42.6283 -76.9539 242° Southwest 439 505 43,000  Level Cleveland Center
11:20AM 42.5703 -77.1011 242° Southwest 439 505 43,000  Level Cleveland Center
11:21AM 42.5119 -77.2422 241° Southwest 444 511 43,000  Level Cleveland Center
11:22AM 42.4533 -77.3861 241° Southwest 444 511 43,000  Level Cleveland Center
11:23AM 42.3928 -77.5300 240° Southwest 449 517 43,000  Level Cleveland Center
11:24AM 42.3361 -77.6758 242° Southwest 449 517 43,000  Level Cleveland Center
11:25AM 42.2769 -77.8217 241° Southwest 449 517 43,000  Level Cleveland Center
11:26AM 42.2181 -77.9672 241° Southwest 449 517 43,000  Level Cleveland Center
11:27AM 42.1586 -78.1125 241° Southwest 449 517 43,000  Level Cleveland Center
11:28AM 42.0908 -78.2692 240° Southwest 449 517 43,000  Level Cleveland Center
11:29AM 42.0292 -78.4139 240° Southwest 449 517 43,000  Level Cleveland Center
11:30AM 41.9714 -78.5611 242° Southwest 449 517 43,000 -720 Level Cleveland Center
11:31AM 41.9072 -78.7056 239° Southwest 454 522 41,600 -1,500 Descending Cleveland Center
11:32AM 41.8467 -78.8439 240° Southwest 449 517 40,100 -1,500 Descending Cleveland Center
11:33AM 41.8006 -78.9619 242° Southwest 429 494 38,600 -1,500 Descending Cleveland Center
11:34AM 41.7481 -79.0858 240° Southwest 403 464 37,200 -1,500 Descending Cleveland Center
11:35AM 41.6933 -79.2122 240° Southwest 392 451 35,700 -1,560 Descending Cleveland Center
11:36AM 41.6364 -79.3439 240° Southwest 398 458 34,100 -1,380 Descending Cleveland Center
11:37AM 41.5753 -79.4839 240° Southwest 417 480 33,000 -600 Descending Cleveland Center
11:38AM 41.5161 -79.6181 240° Southwest 424 488 33,000 -540 Level Cleveland Center
11:39AM 41.4547 -79.7575 240° Southwest 429 494 32,000 -660 Descending Cleveland Center
11:40AM 41.3931 -79.8939 239° Southwest 429 494 31,700 -960 Descending Cleveland Center
11:41AM 41.3272 -80.0439 240° Southwest 429 494 30,100 -1,080 Descending Cleveland Center
11:42AM 41.2672 -80.1825 240° Southwest 429 494 29,600 -780 Descending Cleveland Center
11:43AM 41.2050 -80.3181 239° Southwest 429 494 28,600 -840 Descending Cleveland Center
11:44AM 41.1469 -80.4453 239° Southwest 437 503 28,000 -300 Descending Cleveland Center
11:45AM 41.0761 -80.5969 238° Southwest 444 511 28,000  Level Cleveland Center
11:46AM 41.0136 -80.7428 240° Southwest 457 526 28,000  Level Cleveland Center
11:47AM 40.9486 -80.8856 239° Southwest 457 526 28,000 -540 Level Cleveland Center
11:48AM 40.8856 -81.0281 240° Southwest 457 526 27,000 -1,200 Descending Cleveland Center
11:49AM 40.8681 -81.1981 262° West 452 520 25,700 -1,740 Descending Cleveland Center
11:50AM 40.8586 -81.3656 266° West 466 536 23,600 -2,280 Descending Cleveland Center
11:51AM 40.8472 -81.5219 265° West 453 521 21,200 -2,640 Descending Cleveland Center
11:52AM 40.8042 -81.6639 248° West 417 480 18,400 -2,520 Descending Cleveland Center
11:53AM 40.7303 -81.7642 226° Southwest 389 448 16,200 -1,620 Descending Cleveland Center
11:55AM 40.6031 -81.9400 226° Southwest 390 449 13,900 -840 Descending Indianapolis Center
11:56AM 40.5158 -82.0661 228° Southwest 395 455 13,900 -300 Level Indianapolis Center
11:57AM 40.4667 -82.1408 229° Southwest 396 456 13,400 -1,380 Descending Indianapolis Center
11:58AM 40.3689 -82.2753 226° Southwest 383 441 11,100 -1,680 Descending Indianapolis Center
11:59AM 40.3183 -82.3489 228° Southwest 374 430 10,100 -540 Descending Indianapolis Center
12:00PM 40.2322 -82.4692 227° Southwest 366 421 10,000 -60 Descending Indianapolis Center
12:01PM 40.2014 -82.5503 244° Southwest 327 376 10,000 -1,320 Level Indianapolis Center
12:02PM 40.1853 -82.6572 259° West 290 334 7,900 -1,680 Descending Indianapolis Center
12:03PM 40.1686 -82.8133 262° West 302 348 6,100 -840 Descending Indianapolis Center
12:04PM 40.1486 -82.8922 252° West 300 345 6,100  Level Indianapolis Center
12:05PM 40.1019 -83.0081 242° Southwest 290 334 6,100 -540 Level Indianapolis Center
12:06PM 40.0719 -83.1017 247° West 257 296 4,900 -1,500 Descending Indianapolis Center
12:07PM 40.0672 -83.1908 266° West 261 300 3,000 -1,080 Descending Indianapolis Center
12:08PM 40.0264 -83.2036 193° South 221 254 3,100 60 Climbing Indianapolis Center
12:09PM 40.0125 -83.1303 104° East 223 257 3,100 -60 Level Indianapolis Center
12:10PM 40.0117 -83.0536 91° East 204 235 3,000 -540 Descending Indianapolis Center
12:11PM 40.0072 -82.9900 95° East 161 185 2,100 -840 Descending Indianapolis Center
12:12PM 40.0039 -82.9347 94° East 147 169 1,300 -840 Descending Indianapolis Center